createdAt,value
2023-02-19T00:00:34.016Z,93.70
2023-02-19T00:05:35.826Z,93.40
2023-02-19T00:10:37.798Z,93.40
2023-02-19T00:15:39.886Z,93.40
2023-02-19T00:20:42.176Z,93.40
2023-02-19T00:25:44.118Z,93.50
2023-02-19T00:30:50.443Z,93.50
2023-02-19T00:35:52.251Z,93.60
2023-02-19T00:40:55.863Z,93.70
2023-02-19T00:45:57.699Z,93.80
2023-02-19T00:50:59.520Z,93.50
2023-02-19T00:56:01.303Z,93.40
2023-02-19T01:01:03.706Z,93.40
2023-02-19T01:06:07.704Z,93.50
2023-02-19T01:11:10.310Z,93.60
2023-02-19T01:16:24.752Z,93.80
2023-02-19T01:21:28.190Z,93.90
2023-02-19T01:26:32.138Z,94.10
2023-02-19T01:31:34.264Z,94.30
2023-02-19T01:36:37.318Z,94.40
2023-02-19T01:41:41.342Z,94.50
2023-02-19T01:46:44.061Z,94.80
2023-02-19T01:51:49.455Z,94.90
2023-02-19T01:56:51.521Z,95.20
2023-02-19T02:01:53.451Z,95.20
2023-02-19T02:06:56.708Z,95.40
2023-02-19T02:11:58.627Z,95.60
2023-02-19T02:17:32.080Z,95.70
2023-02-19T02:22:52.500Z,95.90
2023-02-19T02:28:18.837Z,95.90
2023-02-19T02:33:26.560Z,96.00
2023-02-19T02:38:32.080Z,96.10
2023-02-19T02:43:33.912Z,95.90
2023-02-19T02:48:46.989Z,95.70
2023-02-19T02:54:32.318Z,95.70
2023-02-19T02:59:37.192Z,95.70
2023-02-19T03:05:12.818Z,95.70
2023-02-19T03:10:18.392Z,95.70
2023-02-19T03:15:38.855Z,95.70
2023-02-19T03:20:45.573Z,95.90
2023-02-19T03:26:06.076Z,96.00
2023-02-19T03:31:09.995Z,96.20
2023-02-19T03:36:15.604Z,96.50
2023-02-19T03:41:36.812Z,97.00
2023-02-19T03:46:44.742Z,97.50
2023-02-19T03:51:51.474Z,98.00
2023-02-19T03:56:58.506Z,98.90
2023-02-19T04:02:10.305Z,99.80
2023-02-19T04:07:12.330Z,99.90
2023-02-19T04:12:14.954Z,99.90
2023-02-19T04:17:31.629Z,99.90
2023-02-19T04:22:35.287Z,99.90
2023-02-19T04:27:38.907Z,99.90
2023-02-19T04:32:40.692Z,99.90
2023-02-19T04:37:42.541Z,99.90
2023-02-19T04:42:44.357Z,99.90
2023-02-19T04:47:46.240Z,99.90
2023-02-19T04:52:48.040Z,99.90
2023-02-19T04:57:49.878Z,99.90
2023-02-19T05:02:51.744Z,99.90
2023-02-19T05:07:53.734Z,99.90
2023-02-19T05:12:57.876Z,99.90
2023-02-19T05:17:59.909Z,99.90
2023-02-19T05:23:01.771Z,99.90
2023-02-19T05:28:19.293Z,99.90
2023-02-19T05:33:22.744Z,99.90
2023-02-19T05:38:24.841Z,99.90
2023-02-19T05:43:26.622Z,99.90
2023-02-19T05:48:28.437Z,99.90
2023-02-19T05:53:30.578Z,99.90
2023-02-19T05:58:32.393Z,99.90
2023-02-19T06:03:34.210Z,99.90
2023-02-19T06:08:36.101Z,99.90
2023-02-19T06:13:37.889Z,99.90
2023-02-19T06:18:42.209Z,99.90
2023-02-19T06:23:44.814Z,99.90
2023-02-19T06:28:48.535Z,99.90
2023-02-19T06:33:55.034Z,99.90
2023-02-19T06:39:00.036Z,99.90
2023-02-19T06:44:01.975Z,99.90
2023-02-19T06:49:13.225Z,99.90
2023-02-19T06:54:15.011Z,99.90
2023-02-19T06:59:16.954Z,99.90
2023-02-19T07:04:18.852Z,99.90
2023-02-19T07:09:20.736Z,99.90
2023-02-19T07:14:22.774Z,99.90
2023-02-19T07:19:24.564Z,99.90
2023-02-19T07:24:26.415Z,99.90
2023-02-19T07:29:28.390Z,99.90
2023-02-19T07:34:30.170Z,99.90
2023-02-19T07:39:31.953Z,99.90
2023-02-19T07:44:33.780Z,99.90
2023-02-19T07:49:35.600Z,99.90
2023-02-19T07:54:37.417Z,99.90
2023-02-19T07:59:39.195Z,99.90
2023-02-19T08:04:41.053Z,99.90
2023-02-19T08:09:42.861Z,99.90
2023-02-19T08:14:44.691Z,99.90
2023-02-19T08:19:46.498Z,99.90
2023-02-19T08:24:48.339Z,99.90
2023-02-19T08:29:50.563Z,99.90
2023-02-19T08:34:52.372Z,99.90
2023-02-19T08:39:57.307Z,99.90
2023-02-19T08:44:59.148Z,99.90
2023-02-19T08:50:01.004Z,99.90
2023-02-19T08:55:04.428Z,99.90
2023-02-19T09:00:07.303Z,99.90
2023-02-19T09:05:11.216Z,99.90
2023-02-19T09:10:14.321Z,99.90
2023-02-19T09:15:18.111Z,99.90
2023-02-19T09:20:20.003Z,99.90
2023-02-19T09:25:22.909Z,98.60
2023-02-19T09:30:31.253Z,96.80
2023-02-19T09:35:33.110Z,95.60
2023-02-19T09:40:49.687Z,93.70
2023-02-19T09:46:01.684Z,93.80
2023-02-19T09:51:04.270Z,93.60
2023-02-19T09:56:32.184Z,90.20
2023-02-19T10:01:38.551Z,90.00
2023-02-19T10:06:40.389Z,88.20
2023-02-19T10:11:42.269Z,86.60
2023-02-19T10:16:45.632Z,82.90
2023-02-19T10:21:47.523Z,79.70
2023-02-19T10:26:50.057Z,78.70
2023-02-19T10:32:12.480Z,80.40
2023-02-19T10:37:16.704Z,79.50
2023-02-19T10:42:20.809Z,78.90
2023-02-19T10:47:24.307Z,79.50
2023-02-19T10:52:34.282Z,78.90
2023-02-19T10:57:37.790Z,78.10
2023-02-19T11:02:39.712Z,77.00
2023-02-19T11:07:59.545Z,76.60
2023-02-19T11:13:03.202Z,77.40
2023-02-19T11:18:22.795Z,77.10
2023-02-19T11:23:30.114Z,77.10
2023-02-19T11:28:35.340Z,75.60
2023-02-19T11:33:44.129Z,75.10
2023-02-19T11:38:46.020Z,74.20
2023-02-19T11:44:06.211Z,73.10
2023-02-19T11:49:17.756Z,75.20
2023-02-19T11:54:35.962Z,77.30
2023-02-19T11:59:59.893Z,77.40
2023-02-19T12:05:26.853Z,78.60
2023-02-19T12:11:00.751Z,79.10
2023-02-19T12:16:16.183Z,80.80
2023-02-19T12:21:44.344Z,81.50
2023-02-19T12:27:04.028Z,81.00
2023-02-19T12:32:51.193Z,80.90
2023-02-19T12:38:11.060Z,81.30
2023-02-19T12:43:22.225Z,83.00
2023-02-19T12:54:23.868Z,90.00
2023-02-19T12:59:36.704Z,90.40
2023-02-19T13:04:54.774Z,90.30
2023-02-19T13:10:03.611Z,88.70
2023-02-19T13:15:15.279Z,87.80
2023-02-19T13:20:35.936Z,90.10
2023-02-19T13:25:44.216Z,90.80
2023-02-19T13:31:02.500Z,92.10
2023-02-19T13:36:20.434Z,93.40
2023-02-19T13:41:38.178Z,94.70
2023-02-19T13:46:42.701Z,96.50
2023-02-19T13:52:28.241Z,99.10
2023-02-19T14:02:35.068Z,99.90
2023-02-19T14:07:57.139Z,99.90
2023-02-19T14:12:58.986Z,99.90
2023-02-19T14:18:00.770Z,99.90
2023-02-19T14:23:15.815Z,99.90
2023-02-19T14:28:36.890Z,99.90
2023-02-19T14:33:40.990Z,99.90
2023-02-19T14:38:52.907Z,99.90
2023-02-19T14:43:56.716Z,99.90
2023-02-19T14:49:06.918Z,99.90
2023-02-19T14:54:18.161Z,99.90
2023-02-19T14:59:19.954Z,99.90
2023-02-19T15:04:24.499Z,99.90
2023-02-19T15:09:32.976Z,99.90
2023-02-19T15:14:34.953Z,99.90
2023-02-19T15:19:39.598Z,99.70
2023-02-19T15:24:48.254Z,99.90
2023-02-19T15:29:53.896Z,99.90
2023-02-19T15:35:01.132Z,99.90
2023-02-19T15:40:07.313Z,99.90
2023-02-19T15:45:20.751Z,97.90
2023-02-19T15:50:28.809Z,99.90
2023-02-19T16:00:47.416Z,99.90
2023-02-19T16:05:59.028Z,99.90
2023-02-19T16:11:03.498Z,99.90
2023-02-19T16:16:26.719Z,99.90
2023-02-19T16:21:28.944Z,99.90
2023-02-19T16:26:32.522Z,99.90
2023-02-19T16:31:35.109Z,99.90
2023-02-19T16:36:41.453Z,99.90
2023-02-19T16:41:46.969Z,99.90
2023-02-19T16:46:50.057Z,99.90
2023-02-19T16:51:51.888Z,99.90
2023-02-19T16:56:53.760Z,99.90
2023-02-19T17:01:55.589Z,99.90
2023-02-19T17:07:04.285Z,99.90
2023-02-19T17:12:11.270Z,99.90
2023-02-19T17:17:13.132Z,99.90
2023-02-19T17:22:17.360Z,99.90
2023-02-19T17:27:19.155Z,99.90
2023-02-19T17:32:21.072Z,99.90
2023-02-19T17:37:22.979Z,99.90
2023-02-19T17:42:25.909Z,99.90
2023-02-19T17:47:27.727Z,99.90
2023-02-19T17:52:29.640Z,99.90
2023-02-19T17:57:33.780Z,99.90
2023-02-19T18:02:36.022Z,99.90
2023-02-19T18:07:38.533Z,99.90
2023-02-19T18:12:40.337Z,99.90
2023-02-19T18:17:42.129Z,99.90
2023-02-19T18:22:46.018Z,99.90
2023-02-19T18:27:48.548Z,99.90
2023-02-19T18:32:51.580Z,99.90
2023-02-19T18:37:54.143Z,99.90
2023-02-19T18:42:56.186Z,99.90
2023-02-19T18:47:57.966Z,99.90
2023-02-19T18:53:04.632Z,99.90
2023-02-19T18:58:06.636Z,99.90
2023-02-19T19:03:09.477Z,99.90
2023-02-19T19:08:11.278Z,99.90
2023-02-19T19:13:14.187Z,99.90
2023-02-19T19:18:21.276Z,99.90
2023-02-19T19:23:24.200Z,99.90
2023-02-19T19:28:26.000Z,99.90
2023-02-19T19:33:28.250Z,99.90
2023-02-19T19:38:30.744Z,99.90
2023-02-19T19:43:34.928Z,99.20
2023-02-19T19:48:39.267Z,98.90
2023-02-19T19:53:41.125Z,98.40
2023-02-19T19:58:42.952Z,98.70
2023-02-19T20:03:44.745Z,98.40
2023-02-19T20:08:46.535Z,98.00
2023-02-19T20:13:50.385Z,97.90
2023-02-19T20:18:53.290Z,98.50
2023-02-19T20:23:56.165Z,98.90
2023-02-19T20:28:59.110Z,98.80
2023-02-19T20:34:01.051Z,98.80
2023-02-19T20:39:05.836Z,98.70
2023-02-19T20:44:07.984Z,98.60
2023-02-19T20:49:09.845Z,98.60
2023-02-19T20:54:12.423Z,98.20
2023-02-19T20:59:16.779Z,97.90
2023-02-19T21:04:19.219Z,97.70
2023-02-19T21:09:22.521Z,97.40
2023-02-19T21:14:24.358Z,97.10
2023-02-19T21:19:26.225Z,96.60
2023-02-19T21:24:32.802Z,96.60
2023-02-19T21:29:34.596Z,96.70
2023-02-19T21:34:38.485Z,96.50
2023-02-19T21:39:48.181Z,96.30
2023-02-19T21:44:50.083Z,96.00
2023-02-19T21:49:52.909Z,95.70
2023-02-19T21:54:54.711Z,95.70
2023-02-19T21:59:56.664Z,95.80
2023-02-19T22:04:58.939Z,95.80
2023-02-19T22:10:00.728Z,95.50
2023-02-19T22:15:02.546Z,95.50
2023-02-19T22:20:05.597Z,95.70
2023-02-19T22:25:07.899Z,95.60
2023-02-19T22:30:10.393Z,95.70
2023-02-19T22:35:13.329Z,95.80
2023-02-19T22:40:16.788Z,95.70
2023-02-19T22:45:19.249Z,95.50
2023-02-19T22:50:22.513Z,95.30
2023-02-19T22:55:26.773Z,95.30
2023-02-19T23:00:28.559Z,95.20
2023-02-19T23:05:30.456Z,94.70
2023-02-19T23:10:32.516Z,94.60
2023-02-19T23:15:36.849Z,94.20
2023-02-19T23:20:38.675Z,94.30
2023-02-19T23:25:45.972Z,94.20
2023-02-19T23:30:47.965Z,93.90
2023-02-19T23:35:49.972Z,94.00
2023-02-19T23:40:51.824Z,94.10
2023-02-19T23:45:54.147Z,93.50
2023-02-19T23:50:56.115Z,93.40
2023-02-19T23:55:59.025Z,92.90
